SBCTSBNF

Guest
Details From SBCT - Afonso Pena
To SBNF - Ministro Victor Konder
Flight Number -
Tags generated
Created
Modified
Stats Distance 86 nm / 159 km
Max Altitude 3,800 ft / 1,158 m
Waypoints 3
Social Downloads 0
Likes 0
Share VATSIM

Download

Looking for another format? Having issues loading an existing format? Contact us
Advertisement - Login to hide

Notes

Basic altitude profile: - Ascent Rate: 2500ft/min - Ascent Speed: 250kts - Cruise Altitude: 35000ft - Cruise Speed: 420kts - Descent Rate: 1500ft/min - Descent Speed: 250kts Options: - Use NATs: yes - Use PACOTS: yes - Use low airways: yes - Use high airways: yes

Route

SBCT PIMBA SBNF

ID Type Via Altitude Latitude Longitude Leg Dist Tot Dist Heading (true) Name
O SBCT APT - 0 ft / 0 m -25.52888˚ -49.17306˚ - 0 nm - Afonso Pena
PIMBA FIX - 3,800 ft / 1,158 m -25.69867˚ -49.11683˚ 10 nm 10 nm 163° / 163° -
O SBNF APT - 0 ft / 0 m -26.88000˚ -48.65139˚ 75 nm 85 nm 161° / 160° Ministro Victor Konder

Altitude Profile

Advertisement - Login to hide

SBCT

Details ICAO SBCT (CWB)
Name Afonso Pena
Region Brazil
Timezone America/Sao_Paulo (UTC-2.0)
Stats Elevation 2,988 ft / 911 m (AMSL)
Location -25.528885° -49.173062°
Runways 2
Magnetic Variation 19.613° W

METAR

SBCT 150900Z 29010KT 2200 +TSRA BKN009 BKN025 FEW030CB 18/18 Q1 018

Decode

TAF

TAF SBCT 150300Z 1506/1606 25005KT 9999 SCT040 TN19/1508Z TX28/1517Z PROB40 TEMPO 1510/1514 8000 RA SCT020 PROB40 TEMPO 1516/1520 7000 SHRA SCT030 FEW035TCU BECMG 1600/1602 08007KT SCT020 PROB40 1603/1606 BKN010 RMK PDV

Decode

Departure Runways

ID Width Length Bearing (true) Bearing (mag) Surface Threshold Offset Overrun Length
11 148 ft / 45 m 5,909 ft / 1,801 m 91.79° 111.40° Asphalt 0 ft / 0 m 0 ft / 0 m
15 148 ft / 45 m 7,290 ft / 2,222 m 134.76° 154.37° Asphalt 0 ft / 0 m 190 ft / 58 m
29 148 ft / 45 m 5,909 ft / 1,801 m 271.78° 291.39° Asphalt 0 ft / 0 m 0 ft / 0 m
33 148 ft / 45 m 7,290 ft / 2,222 m 314.75° 334.36° Asphalt 0 ft / 0 m 185 ft / 56 m

SBNF

Details ICAO SBNF (NVT)
Name Ministro Victor Konder
Region Brazil
Timezone America/Sao_Paulo (UTC-2.0)
Stats Elevation 18 ft / 5 m (AMSL)
Location -26.879998° -48.651387°
Runways 1
Magnetic Variation 19.513° W

METAR

SBNF 150900Z 03006KT 8000 -TSRA SCT015 FEW025CB BKN090 23/22 Q1 012 RERA

Decode

TAF

TAF SBNF 150300Z 1506/1606 02008KT 9999 SCT015 TN22/1508Z TX26/1517Z BECMG 1516/1518 08010KT SCT020 BECMG 1522/1524 08007KT SCT015 RMK PDV

Decode

Destination Runways

ID Width Length Bearing (true) Bearing (mag) Surface Threshold Offset Overrun Length
07 148 ft / 45 m 5,580 ft / 1,701 m 54.86° 74.37° Asphalt 0 ft / 0 m 190 ft / 58 m
25 148 ft / 45 m 5,580 ft / 1,701 m 234.85° 254.36° Asphalt 0 ft / 0 m 195 ft / 59 m

Popular Alternatives